createdAt,value
2023-03-22T00:01:46.288Z,5.87
2023-03-22T00:04:12.919Z,6.40
2023-03-22T00:06:39.826Z,8.63
2023-03-22T00:09:06.311Z,6.43
2023-03-22T00:11:32.719Z,6.50
2023-03-22T00:13:59.608Z,5.47
2023-03-22T00:16:26.542Z,5.77
2023-03-22T00:18:53.169Z,11.37
2023-03-22T00:21:21.155Z,6.10
2023-03-22T00:23:47.566Z,8.00
2023-03-22T00:26:14.880Z,6.00
2023-03-22T00:28:42.446Z,6.60
2023-03-22T00:31:09.464Z,8.97
2023-03-22T00:33:36.797Z,6.97
2023-03-22T00:36:06.667Z,6.33
2023-03-22T00:38:43.798Z,4.67
2023-03-22T00:41:14.140Z,5.03
2023-03-22T00:43:40.994Z,10.47
2023-03-22T00:46:08.002Z,5.67
2023-03-22T00:48:34.413Z,4.97
2023-03-22T00:51:02.122Z,5.67
2023-03-22T00:53:32.885Z,8.43
2023-03-22T00:56:00.261Z,4.10
2023-03-22T00:58:26.718Z,7.17
2023-03-22T01:00:53.338Z,6.03
2023-03-22T01:03:21.838Z,4.23
2023-03-22T01:05:49.318Z,4.30
2023-03-22T01:08:16.739Z,4.83
2023-03-22T01:10:44.280Z,6.87
2023-03-22T01:13:11.538Z,4.93
2023-03-22T01:15:38.159Z,4.00
2023-03-22T01:18:04.740Z,4.13
2023-03-22T01:20:31.836Z,8.60
2023-03-22T01:22:58.238Z,6.63
2023-03-22T01:25:24.732Z,6.80
2023-03-22T01:27:51.274Z,4.37
2023-03-22T01:30:17.810Z,3.70
2023-03-22T01:32:44.205Z,3.70
2023-03-22T01:35:11.039Z,4.20
2023-03-22T01:37:37.470Z,3.03
2023-03-22T01:40:04.837Z,4.20
2023-03-22T01:42:31.242Z,4.43
2023-03-22T01:45:27.175Z,7.83
2023-03-22T01:48:01.583Z,4.00
2023-03-22T01:50:29.907Z,6.73
2023-03-22T01:52:57.730Z,3.47
2023-03-22T01:55:26.095Z,3.80
2023-03-22T01:57:53.890Z,5.50
2023-03-22T02:00:20.624Z,4.40
2023-03-22T02:02:50.412Z,3.63
2023-03-22T02:05:22.264Z,8.30
2023-03-22T02:07:49.772Z,4.20
2023-03-22T02:10:26.398Z,3.37
2023-03-22T02:12:59.254Z,4.10
2023-03-22T02:15:33.580Z,3.03
2023-03-22T02:18:11.355Z,5.43
2023-03-22T02:20:47.110Z,2.93
2023-03-22T02:23:32.462Z,3.67
2023-03-22T02:26:39.196Z,4.00
2023-03-22T02:29:13.077Z,4.60
2023-03-22T02:32:01.264Z,5.77
2023-03-22T02:35:05.267Z,3.23
2023-03-22T02:37:33.664Z,5.50
2023-03-22T02:40:07.396Z,8.87
2023-03-22T02:42:49.180Z,3.60
2023-03-22T02:45:24.805Z,4.80
2023-03-22T02:47:59.461Z,3.90
2023-03-22T02:50:51.345Z,3.70
2023-03-22T02:53:20.528Z,5.10
2023-03-22T02:56:01.059Z,4.27
2023-03-22T02:58:34.992Z,4.90
2023-03-22T03:01:05.730Z,3.53
2023-03-22T03:03:33.566Z,2.80
2023-03-22T03:06:08.295Z,3.80
2023-03-22T03:08:36.917Z,4.10
2023-03-22T03:11:04.018Z,4.03
2023-03-22T03:13:30.862Z,7.53
2023-03-22T03:16:01.319Z,2.90
2023-03-22T03:18:46.290Z,4.33
2023-03-22T03:21:34.698Z,4.33
2023-03-22T03:24:15.682Z,4.83
2023-03-22T03:27:03.405Z,3.03
2023-03-22T03:29:40.689Z,3.67
2023-03-22T03:32:16.948Z,3.83
2023-03-22T03:34:52.729Z,3.23
2023-03-22T03:37:23.911Z,2.60
2023-03-22T03:40:01.393Z,5.40
2023-03-22T03:42:29.281Z,4.53
2023-03-22T03:44:56.426Z,2.67
2023-03-22T03:47:23.350Z,3.47
2023-03-22T03:49:50.274Z,3.30
2023-03-22T03:52:17.237Z,3.93
2023-03-22T03:54:43.806Z,4.87
2023-03-22T03:57:10.179Z,2.63
2023-03-22T03:59:36.579Z,7.90
2023-03-22T04:02:03.148Z,3.30
2023-03-22T04:04:29.632Z,3.23
2023-03-22T04:06:58.489Z,3.43
2023-03-22T04:09:27.309Z,5.13
2023-03-22T04:11:55.276Z,3.97
2023-03-22T04:14:21.821Z,2.80
2023-03-22T04:16:48.341Z,3.17
2023-03-22T04:19:14.839Z,2.67
2023-03-22T04:21:41.263Z,3.40
2023-03-22T04:24:07.857Z,3.07
2023-03-22T04:26:34.813Z,3.30
2023-03-22T04:29:03.207Z,4.87
2023-03-22T04:31:31.087Z,3.63
2023-03-22T04:33:57.618Z,4.83
2023-03-22T04:36:25.537Z,4.20
2023-03-22T04:38:51.996Z,4.43
2023-03-22T04:41:18.792Z,4.03
2023-03-22T04:43:46.893Z,4.43
2023-03-22T04:46:14.076Z,4.90
2023-03-22T04:48:41.798Z,5.13
2023-03-22T04:51:10.565Z,8.20
2023-03-22T04:53:40.373Z,2.60
2023-03-22T04:56:10.073Z,3.70
2023-03-22T04:58:41.080Z,4.17
2023-03-22T05:01:09.625Z,7.73
2023-03-22T05:03:37.190Z,2.67
2023-03-22T05:06:07.331Z,2.87
2023-03-22T05:08:34.304Z,6.33
2023-03-22T05:11:06.884Z,4.43
2023-03-22T05:13:33.831Z,5.13
2023-03-22T05:16:00.526Z,6.07
2023-03-22T05:18:27.572Z,4.63
2023-03-22T05:20:59.792Z,6.30
2023-03-22T05:23:26.318Z,5.07
2023-03-22T05:25:54.238Z,2.90
2023-03-22T05:28:22.182Z,6.60
2023-03-22T05:30:49.540Z,5.17
2023-03-22T05:33:16.918Z,2.70
2023-03-22T05:35:43.706Z,6.20
2023-03-22T05:38:10.328Z,4.53
2023-03-22T05:40:36.877Z,2.80
2023-03-22T05:43:03.275Z,4.37
2023-03-22T05:45:29.882Z,3.17
2023-03-22T05:47:56.287Z,4.37
2023-03-22T05:50:23.224Z,3.07
2023-03-22T05:52:50.316Z,3.90
2023-03-22T05:55:19.604Z,2.80
2023-03-22T05:57:46.986Z,4.10
2023-03-22T06:00:16.092Z,2.20
2023-03-22T06:02:44.999Z,4.20
2023-03-22T06:05:14.445Z,2.30
2023-03-22T06:07:41.491Z,4.90
2023-03-22T06:10:10.907Z,6.40
2023-03-22T06:12:37.347Z,4.03
2023-03-22T06:15:05.000Z,2.60
2023-03-22T06:17:31.499Z,4.13
2023-03-22T06:19:57.935Z,5.63
2023-03-22T06:22:24.356Z,3.70
2023-03-22T06:24:50.846Z,2.30
2023-03-22T06:27:17.865Z,6.33
2023-03-22T06:29:44.718Z,4.27
2023-03-22T06:32:11.397Z,3.50
2023-03-22T06:34:37.775Z,5.67
2023-03-22T06:37:04.703Z,4.33
2023-03-22T06:39:31.202Z,3.10
2023-03-22T06:41:57.596Z,2.63
2023-03-22T06:44:24.008Z,3.70
2023-03-22T06:46:52.468Z,2.70
2023-03-22T06:49:19.549Z,3.47
2023-03-22T06:51:46.111Z,2.47
2023-03-22T06:54:13.307Z,4.10
2023-03-22T06:56:39.705Z,9.73
2023-03-22T06:59:06.204Z,4.43
2023-03-22T07:01:32.737Z,3.27
2023-03-22T07:03:59.238Z,3.40
2023-03-22T07:06:26.033Z,4.07
2023-03-22T07:08:52.438Z,3.13
2023-03-22T07:11:20.410Z,2.70
2023-03-22T07:13:46.858Z,8.80
2023-03-22T07:16:13.293Z,3.20
2023-03-22T07:18:40.566Z,4.17
2023-03-22T07:21:07.154Z,3.43
2023-03-22T07:23:33.612Z,8.30
2023-03-22T07:26:02.265Z,7.10
2023-03-22T07:28:28.764Z,6.37
2023-03-22T07:31:11.483Z,2.43
2023-03-22T07:33:39.246Z,2.60
2023-03-22T07:36:07.228Z,3.13
2023-03-22T07:38:35.500Z,3.30
2023-03-22T07:41:01.937Z,3.50
2023-03-22T07:43:28.767Z,3.87
2023-03-22T07:45:55.619Z,4.60
2023-03-22T07:48:23.569Z,8.50
2023-03-22T07:50:54.163Z,3.63
2023-03-22T07:53:20.553Z,3.40
2023-03-22T07:55:47.524Z,2.43
2023-03-22T07:58:14.980Z,3.23
2023-03-22T08:00:42.593Z,8.10
2023-03-22T08:03:12.232Z,2.13
2023-03-22T08:05:43.273Z,1.60
2023-03-22T08:08:10.491Z,3.80
2023-03-22T08:10:37.678Z,5.27
2023-03-22T08:13:04.644Z,1.70
2023-03-22T08:15:31.759Z,2.37
2023-03-22T08:17:58.320Z,3.40
2023-03-22T08:20:28.832Z,2.40
2023-03-22T08:22:55.387Z,2.10
2023-03-22T08:25:22.344Z,3.30
2023-03-22T08:27:49.008Z,2.93
2023-03-22T08:30:15.592Z,2.83
2023-03-22T08:32:43.580Z,1.67
2023-03-22T08:35:11.328Z,5.80
2023-03-22T08:37:39.216Z,1.80
2023-03-22T08:40:10.491Z,2.17
2023-03-22T08:42:36.971Z,1.03
2023-03-22T08:45:04.480Z,1.10
2023-03-22T08:47:31.460Z,1.00
2023-03-22T08:49:59.003Z,1.80
2023-03-22T08:52:25.632Z,1.13
2023-03-22T08:54:53.296Z,1.17
2023-03-22T08:57:21.909Z,1.93
2023-03-22T08:59:48.681Z,1.40
2023-03-22T09:02:15.580Z,2.90
2023-03-22T09:04:42.253Z,1.00
2023-03-22T09:07:09.013Z,1.53
2023-03-22T09:09:35.824Z,3.03
2023-03-22T09:12:02.503Z,1.23
2023-03-22T09:14:30.542Z,1.40
2023-03-22T09:16:57.056Z,0.90
2023-03-22T09:19:23.469Z,1.63
2023-03-22T09:21:50.066Z,2.10
2023-03-22T09:24:16.549Z,3.13
2023-03-22T09:26:44.595Z,1.07
2023-03-22T09:29:11.102Z,2.00
2023-03-22T09:31:37.551Z,1.23
2023-03-22T09:34:04.072Z,0.70
2023-03-22T09:36:32.287Z,1.13
2023-03-22T09:38:59.535Z,1.20
2023-03-22T09:41:50.609Z,0.80
2023-03-22T09:44:36.323Z,1.00
2023-03-22T09:47:08.565Z,1.27
2023-03-22T09:49:52.681Z,0.80
2023-03-22T09:52:20.448Z,2.37
2023-03-22T09:54:47.100Z,1.43
2023-03-22T09:57:38.948Z,2.30
2023-03-22T10:00:17.194Z,1.07
2023-03-22T10:02:46.529Z,0.63
2023-03-22T10:05:17.319Z,4.00
2023-03-22T10:07:58.979Z,0.83
2023-03-22T10:10:26.154Z,0.70
2023-03-22T10:13:19.767Z,0.83
2023-03-22T10:15:50.518Z,0.67
2023-03-22T10:18:36.583Z,0.67
2023-03-22T10:21:15.278Z,0.80
2023-03-22T10:23:45.103Z,0.87
2023-03-22T10:26:29.373Z,2.67
2023-03-22T10:29:04.003Z,0.80
2023-03-22T10:31:33.708Z,3.70
2023-03-22T10:34:19.267Z,0.70
2023-03-22T10:36:47.555Z,0.67
2023-03-22T10:39:34.851Z,0.70
2023-03-22T10:42:05.697Z,5.50
2023-03-22T10:44:39.057Z,0.70
2023-03-22T10:47:07.923Z,1.07
2023-03-22T10:49:44.665Z,0.67
2023-03-22T10:52:39.449Z,1.57
2023-03-22T10:55:12.626Z,0.70
2023-03-22T10:57:40.033Z,2.20
2023-03-22T11:00:13.591Z,1.37
2023-03-22T11:03:00.949Z,0.80
2023-03-22T11:05:29.872Z,0.40
2023-03-22T11:07:58.443Z,0.70
2023-03-22T11:10:32.545Z,0.83
2023-03-22T11:13:08.841Z,2.00
2023-03-22T11:15:49.975Z,1.10
2023-03-22T11:18:17.722Z,0.80
2023-03-22T11:20:57.810Z,1.13
2023-03-22T11:23:25.728Z,0.90
2023-03-22T11:25:56.442Z,0.77
2023-03-22T11:28:26.125Z,0.80
2023-03-22T11:31:11.815Z,1.23
2023-03-22T11:33:54.008Z,0.60
2023-03-22T11:36:20.714Z,0.70
2023-03-22T11:38:48.781Z,2.20
2023-03-22T11:41:21.553Z,0.70
2023-03-22T11:43:54.055Z,3.40
2023-03-22T11:46:21.578Z,0.70
2023-03-22T11:48:50.561Z,0.83
2023-03-22T11:51:26.671Z,3.70
2023-03-22T11:54:01.609Z,0.60
2023-03-22T11:56:30.342Z,0.83
2023-03-22T11:59:03.986Z,1.17
2023-03-22T12:01:42.687Z,0.80
2023-03-22T12:04:18.879Z,1.10
2023-03-22T12:06:45.711Z,0.80
2023-03-22T12:09:43.434Z,1.60
2023-03-22T12:12:19.192Z,0.90
2023-03-22T12:14:55.791Z,1.00
2023-03-22T12:17:31.831Z,1.33
2023-03-22T12:20:16.259Z,1.80
2023-03-22T12:22:50.933Z,0.93
2023-03-22T12:25:28.936Z,0.97
2023-03-22T12:27:59.401Z,2.00
2023-03-22T12:30:33.644Z,0.70
2023-03-22T12:33:16.365Z,1.93
2023-03-22T12:35:47.729Z,0.90
2023-03-22T12:38:29.716Z,0.77
2023-03-22T12:41:00.613Z,2.17
2023-03-22T12:43:46.732Z,0.60
2023-03-22T12:46:27.801Z,1.20
2023-03-22T12:49:23.186Z,1.10
2023-03-22T12:51:51.897Z,1.17
2023-03-22T12:54:22.706Z,2.67
2023-03-22T12:56:50.637Z,0.80
2023-03-22T12:59:23.353Z,0.80
2023-03-22T13:01:56.311Z,0.93
2023-03-22T13:04:27.507Z,0.50
2023-03-22T13:06:55.730Z,0.80
2023-03-22T13:09:28.197Z,0.50
2023-03-22T13:12:16.489Z,0.77
2023-03-22T13:14:49.610Z,0.57
2023-03-22T13:17:41.740Z,0.60
2023-03-22T13:20:19.830Z,0.93
2023-03-22T13:22:49.322Z,0.43
2023-03-22T13:25:21.215Z,0.60
2023-03-22T13:28:16.958Z,0.67
2023-03-22T13:30:52.829Z,0.40
2023-03-22T13:33:29.141Z,1.17
2023-03-22T13:36:07.236Z,0.67
2023-03-22T13:38:38.972Z,0.50
2023-03-22T13:41:21.047Z,2.47
2023-03-22T13:43:56.166Z,0.70
2023-03-22T13:46:22.674Z,0.73
2023-03-22T13:48:52.621Z,1.60
2023-03-22T13:51:22.543Z,0.73
2023-03-22T13:54:06.857Z,1.30
2023-03-22T13:56:43.134Z,1.10
2023-03-22T13:59:19.361Z,0.80
2023-03-22T14:01:52.519Z,0.60
2023-03-22T14:04:54.242Z,0.50
2023-03-22T14:07:31.469Z,2.87
2023-03-22T14:10:14.322Z,0.50
2023-03-22T14:12:55.722Z,0.60
2023-03-22T14:15:48.533Z,0.40
2023-03-22T14:18:23.016Z,0.63
2023-03-22T14:20:54.884Z,0.67
